createdAt,value
2022-10-05T00:03:51.010Z,74.21
2022-10-05T00:09:21.639Z,74.14
2022-10-05T00:14:57.873Z,74.32
2022-10-05T00:20:26.741Z,74.77
2022-10-05T00:26:11.149Z,74.78
2022-10-05T00:31:41.191Z,75.14
2022-10-05T00:37:26.060Z,75.24
2022-10-05T00:43:18.008Z,75.57
2022-10-05T00:49:01.962Z,75.33
2022-10-05T00:54:53.920Z,75.10
2022-10-05T01:00:24.880Z,75.90
2022-10-05T01:06:22.741Z,76.53
2022-10-05T01:12:18.886Z,77.10
2022-10-05T01:18:08.922Z,77.18
2022-10-05T01:24:16.582Z,77.22
2022-10-05T01:30:18.017Z,77.34
2022-10-05T01:36:32.928Z,77.57
2022-10-05T01:42:59.949Z,77.04
2022-10-05T01:48:47.113Z,77.04
2022-10-05T01:54:50.139Z,77.22
2022-10-05T02:00:23.099Z,77.60
2022-10-05T02:06:43.829Z,77.77
2022-10-05T02:12:14.833Z,77.76
2022-10-05T02:17:50.324Z,77.59
2022-10-05T02:23:32.482Z,77.56
2022-10-05T02:29:06.055Z,77.51
2022-10-05T02:34:48.406Z,77.64
2022-10-05T02:41:02.013Z,77.65
2022-10-05T02:47:28.595Z,77.50
2022-10-05T02:53:11.110Z,77.38
2022-10-05T02:59:06.346Z,77.10
2022-10-05T03:04:44.150Z,77.00
2022-10-05T03:10:47.291Z,76.83
2022-10-05T03:16:38.878Z,76.58
2022-10-05T03:22:24.212Z,76.40
2022-10-05T03:28:43.201Z,76.22
2022-10-05T03:35:01.154Z,76.33
2022-10-05T03:41:33.638Z,76.32
2022-10-05T03:47:46.025Z,76.36
2022-10-05T03:53:20.995Z,76.64
2022-10-05T03:59:12.490Z,76.57
2022-10-05T04:05:03.877Z,76.59
2022-10-05T04:10:35.673Z,76.45
2022-10-05T04:16:29.763Z,76.49
2022-10-05T04:22:12.361Z,76.50
2022-10-05T04:27:53.216Z,76.20
2022-10-05T04:33:16.351Z,75.98
2022-10-05T04:39:34.037Z,75.88
2022-10-05T04:45:28.459Z,75.82
2022-10-05T04:51:33.540Z,75.90
2022-10-05T04:57:10.922Z,76.04
2022-10-05T05:03:43.166Z,76.08
2022-10-05T05:09:38.309Z,76.28
2022-10-05T05:15:52.442Z,76.22
2022-10-05T05:21:38.175Z,76.01
2022-10-05T05:27:31.154Z,75.85
2022-10-05T05:33:41.307Z,75.85
2022-10-05T05:40:00.541Z,75.65
2022-10-05T05:45:57.151Z,75.65
2022-10-05T05:51:41.429Z,75.76
2022-10-05T05:57:23.276Z,75.89
2022-10-05T06:03:36.333Z,75.87
2022-10-05T06:10:00.108Z,75.98
2022-10-05T06:16:01.283Z,76.07
2022-10-05T06:21:37.695Z,76.32
2022-10-05T06:27:13.444Z,76.39
2022-10-05T06:32:50.839Z,76.46
2022-10-05T06:38:49.616Z,76.21
2022-10-05T06:44:47.136Z,76.01
2022-10-05T06:51:12.020Z,75.72
2022-10-05T06:57:01.814Z,75.45
2022-10-05T07:02:35.289Z,75.16
2022-10-05T07:09:18.230Z,75.21
2022-10-05T07:15:01.191Z,74.76
2022-10-05T07:21:15.749Z,74.18
2022-10-05T07:26:59.612Z,73.44
2022-10-05T07:32:27.915Z,73.08
2022-10-05T07:38:17.793Z,73.01
2022-10-05T07:44:02.118Z,72.63
2022-10-05T07:49:59.754Z,72.06
2022-10-05T07:55:57.752Z,71.54
2022-10-05T08:01:37.761Z,70.92
2022-10-05T08:07:16.401Z,70.44
2022-10-05T08:13:22.311Z,70.28
2022-10-05T08:18:56.997Z,69.79
2022-10-05T08:25:16.811Z,68.94
2022-10-05T08:30:55.882Z,68.21
2022-10-05T08:37:15.398Z,67.43
2022-10-05T08:43:57.497Z,67.46
2022-10-05T08:50:33.883Z,66.46
2022-10-05T08:57:43.066Z,66.28
2022-10-05T09:04:27.656Z,65.00
2022-10-05T09:10:53.468Z,64.71
2022-10-05T09:17:35.834Z,64.67
2022-10-05T09:23:46.806Z,64.11
2022-10-05T09:30:18.478Z,63.67
2022-10-05T09:37:37.304Z,62.81
2022-10-05T09:44:21.983Z,62.72
2022-10-05T09:51:20.120Z,63.01
2022-10-05T09:58:00.283Z,62.44
2022-10-05T10:04:48.822Z,61.47
2022-10-05T10:10:49.854Z,60.51
2022-10-05T10:17:24.765Z,59.40
2022-10-05T10:24:44.486Z,59.26
2022-10-05T10:31:13.966Z,59.22
2022-10-05T10:37:34.453Z,59.21
2022-10-05T10:44:02.684Z,58.82
2022-10-05T10:50:48.635Z,58.44
2022-10-05T10:58:04.494Z,58.63
2022-10-05T11:05:09.020Z,58.83
2022-10-05T11:11:51.417Z,58.56
2022-10-05T11:18:27.648Z,58.19
2022-10-05T11:24:39.421Z,57.81
2022-10-05T11:30:30.026Z,58.33
2022-10-05T11:36:53.507Z,58.31
2022-10-05T11:43:23.120Z,58.31
2022-10-05T11:49:53.683Z,57.99
2022-10-05T11:55:50.033Z,58.18
2022-10-05T12:01:42.192Z,57.74
2022-10-05T12:07:55.002Z,57.87
2022-10-05T12:14:17.527Z,58.06
2022-10-05T12:19:56.557Z,57.83
2022-10-05T12:25:56.810Z,56.31
2022-10-05T12:32:22.529Z,56.10
2022-10-05T12:38:29.355Z,56.21
2022-10-05T12:45:08.498Z,56.24
2022-10-05T12:50:36.827Z,56.03
2022-10-05T12:57:06.161Z,56.08
2022-10-05T13:03:11.237Z,57.04
2022-10-05T13:09:03.267Z,55.96
2022-10-05T13:14:59.215Z,55.94
2022-10-05T13:20:52.366Z,55.94
2022-10-05T13:26:39.409Z,55.99
2022-10-05T13:32:25.895Z,56.06
2022-10-05T13:38:24.324Z,56.38
2022-10-05T13:44:33.399Z,56.76
2022-10-05T13:50:19.441Z,57.01
2022-10-05T13:55:54.771Z,57.45
2022-10-05T14:01:53.755Z,57.60
2022-10-05T14:08:15.758Z,57.74
